Time;durP1;ratioP1;P1;durP2;ratioP2;P2;SDS_P1;SDS_P2;PMS_P1;PMS_P2;Temp;Humidity;BMP_temperature;BMP_pressure;BME280_temperature;BME280_humidity;BME280_pressure;Samples;Min_cycle;Max_cycle;Signal;HPM_P1;HPM_P2
2024/03/10 00:01:24;;;;;;;12.10;7.00;;;9.90;99.90;;;;;;4966484;28;20473;-72
2024/03/10 00:03:50;;;;;;;9.53;6.30;;;9.90;99.90;;;;;;4949257;28;20470;-73
2024/03/10 00:06:16;;;;;;;9.90;6.37;;;9.80;99.90;;;;;;4970059;28;20462;-72
2024/03/10 00:08:43;;;;;;;8.90;5.90;;;9.80;99.90;;;;;;4968254;28;20336;-71
2024/03/10 00:11:11;;;;;;;9.67;6.10;;;9.80;99.90;;;;;;4952656;28;20456;-70
2024/03/10 00:13:37;;;;;;;9.03;6.23;;;9.80;99.90;;;;;;4963920;28;20470;-72
2024/03/10 00:16:03;;;;;;;9.03;5.60;;;9.80;99.90;;;;;;4970420;28;20448;-72
2024/03/10 00:18:29;;;;;;;9.33;5.30;;;9.80;99.90;;;;;;4963744;28;20465;-71
2024/03/10 00:20:55;;;;;;;7.33;5.87;;;9.80;99.90;;;;;;4966726;28;20210;-71
2024/03/10 00:23:21;;;;;;;11.60;6.37;;;9.80;99.90;;;;;;4964537;28;20218;-70
2024/03/10 00:25:47;;;;;;;10.40;6.63;;;9.80;99.90;;;;;;4964729;28;20277;-72
2024/03/10 00:28:12;;;;;;;9.30;5.77;;;9.80;99.90;;;;;;4967998;28;20458;-71
2024/03/10 00:30:38;;;;;;;10.47;6.03;;;9.80;99.90;;;;;;4961990;28;20214;-71
2024/03/10 00:33:04;;;;;;;11.27;6.70;;;9.70;99.90;;;;;;4960382;28;20226;-71
2024/03/10 00:35:30;;;;;;;11.43;5.23;;;9.70;99.90;;;;;;4958270;28;20222;-71
2024/03/10 00:37:56;;;;;;;9.40;6.20;;;9.70;99.90;;;;;;4956019;28;20590;-72
2024/03/10 00:40:23;;;;;;;9.57;5.27;;;9.70;99.90;;;;;;4958291;28;20468;-70
2024/03/10 00:42:49;;;;;;;9.90;5.37;;;9.70;99.90;;;;;;4955580;28;20696;-71
2024/03/10 00:45:15;;;;;;;5.97;4.90;;;9.60;99.90;;;;;;4959677;28;20489;-72
2024/03/10 00:47:41;;;;;;;9.80;5.87;;;9.60;99.90;;;;;;4960810;28;20588;-71
2024/03/10 00:50:10;;;;;;;8.60;5.50;;;9.60;99.90;;;;;;4966048;28;20297;-70
2024/03/10 00:52:37;;;;;;;8.53;5.83;;;9.60;99.90;;;;;;4958896;28;20661;-71
2024/03/10 00:55:04;;;;;;;6.17;4.77;;;9.50;99.90;;;;;;4957526;28;20569;-71
2024/03/10 00:57:30;;;;;;;7.67;4.50;;;9.50;99.90;;;;;;4943303;28;20534;-71
2024/03/10 00:59:56;;;;;;;8.93;4.90;;;9.50;99.90;;;;;;4958570;28;20544;-72
2024/03/10 01:02:23;;;;;;;10.63;5.77;;;9.50;99.90;;;;;;4971097;28;20237;-71
2024/03/10 01:04:49;;;;;;;7.67;5.23;;;9.50;99.90;;;;;;4956880;28;20285;-71
2024/03/10 01:07:14;;;;;;;7.57;4.77;;;9.50;99.90;;;;;;4951891;28;20467;-71
2024/03/10 01:09:40;;;;;;;8.17;5.73;;;9.50;99.90;;;;;;4958357;28;20234;-72
2024/03/10 01:12:07;;;;;;;6.90;5.00;;;9.50;99.90;;;;;;4956519;28;20227;-71
2024/03/10 01:14:33;;;;;;;6.50;4.33;;;9.50;99.90;;;;;;4956172;28;20231;-71
2024/03/10 01:17:04;;;;;;;9.17;5.70;;;9.50;99.90;;;;;;4964049;28;21020;-72
2024/03/10 01:19:37;;;;;;;8.90;5.77;;;9.50;99.90;;;;;;4957023;28;20828;-71
2024/03/10 01:22:03;;;;;;;7.90;5.17;;;9.50;99.90;;;;;;4948657;28;20461;-71
2024/03/10 01:24:29;;;;;;;7.57;4.97;;;9.50;99.90;;;;;;4958740;28;20481;-72
2024/03/10 01:26:55;;;;;;;6.10;4.20;;;9.50;99.90;;;;;;4956229;28;20301;-72
2024/03/10 01:29:22;;;;;;;8.33;5.30;;;9.50;99.90;;;;;;4945186;28;20346;-71
2024/03/10 01:31:48;;;;;;;9.80;5.10;;;9.50;99.90;;;;;;4953853;28;20228;-71
2024/03/10 01:34:15;;;;;;;7.57;4.80;;;9.40;99.90;;;;;;4961008;28;20461;-72
2024/03/10 01:36:40;;;;;;;6.13;4.53;;;9.40;99.90;;;;;;4941876;28;20313;-72
2024/03/10 01:39:08;;;;;;;8.63;5.00;;;9.40;99.90;;;;;;4948118;28;20561;-71
2024/03/10 01:41:34;;;;;;;7.10;5.13;;;9.40;99.90;;;;;;4953625;28;20226;-71
2024/03/10 01:44:00;;;;;;;10.17;5.87;;;9.40;99.90;;;;;;4956186;28;20516;-71
2024/03/10 01:46:27;;;;;;;7.67;5.80;;;9.40;99.90;;;;;;4959467;28;20461;-70
2024/03/10 01:48:54;;;;;;;7.57;4.47;;;9.40;99.90;;;;;;4954215;28;20222;-72
2024/03/10 01:51:20;;;;;;;6.60;4.37;;;9.40;99.90;;;;;;4959802;28;20818;-72
2024/03/10 01:53:47;;;;;;;6.43;4.67;;;9.40;99.90;;;;;;4953658;28;20461;-70
2024/03/10 01:56:13;;;;;;;8.27;4.80;;;9.40;99.90;;;;;;4949082;28;21113;-72
2024/03/10 01:58:40;;;;;;;9.83;5.97;;;9.40;99.90;;;;;;4968919;28;20857;-72
2024/03/10 02:01:07;;;;;;;7.83;5.57;;;9.40;99.90;;;;;;4957599;28;20464;-72
2024/03/10 02:03:33;;;;;;;7.17;4.80;;;9.40;99.90;;;;;;4964098;28;20454;-71
2024/03/10 02:05:59;;;;;;;7.07;4.90;;;9.40;99.90;;;;;;4958112;28;20465;-72
2024/03/10 02:08:26;;;;;;;6.50;4.80;;;9.40;99.90;;;;;;4961739;28;20481;-71
2024/03/10 02:10:52;;;;;;;10.27;4.97;;;9.40;99.90;;;;;;4959176;28;20229;-72
2024/03/10 02:13:18;;;;;;;7.80;4.63;;;9.50;99.90;;;;;;4963940;28;20604;-71
2024/03/10 02:16:01;;;;;;;7.90;4.80;;;9.50;99.90;;;;;;4962471;28;20475;-72
2024/03/10 02:18:28;;;;;;;5.80;4.50;;;9.40;99.90;;;;;;4961559;28;20462;-71
2024/03/10 02:20:55;;;;;;;7.30;4.23;;;9.40;99.90;;;;;;4960564;28;20955;-71
2024/03/10 02:23:23;;;;;;;8.60;5.23;;;9.40;99.90;;;;;;4960424;28;20497;-71
2024/03/10 02:25:52;;;;;;;9.27;4.97;;;9.40;99.90;;;;;;4959687;28;20454;-71
2024/03/10 02:28:21;;;;;;;7.40;5.50;;;9.30;99.90;;;;;;4961258;28;20494;-70
2024/03/10 02:47:11;;;;;;;9.57;5.73;;;9.30;99.90;;;;;;4960239;28;20466;-72
2024/03/10 02:47:27;;;;;;;11.83;6.03;;;9.20;99.90;;;;;;4951988;28;20886;-72
2024/03/10 02:49:52;;;;;;;9.83;5.17;;;9.20;99.90;;;;;;4958233;28;20469;-72
2024/03/10 02:52:19;;;;;;;8.20;4.83;;;9.30;99.90;;;;;;4958580;28;20227;-72
2024/03/10 02:54:44;;;;;;;9.40;6.10;;;9.30;99.90;;;;;;4956425;28;20230;-72
2024/03/10 02:57:10;;;;;;;8.23;5.20;;;9.20;99.90;;;;;;4958115;28;20472;-73
2024/03/10 02:59:36;;;;;;;7.60;5.80;;;9.20;99.90;;;;;;4958182;28;20223;-72
2024/03/10 03:02:01;;;;;;;8.70;4.80;;;9.20;99.90;;;;;;4944432;28;20225;-71
2024/03/10 03:04:28;;;;;;;7.50;4.90;;;9.20;99.90;;;;;;4963615;28;20236;-72
2024/03/10 03:06:54;;;;;;;8.27;5.60;;;9.20;99.90;;;;;;4961949;28;20254;-72
2024/03/10 03:09:20;;;;;;;7.40;5.13;;;9.20;99.90;;;;;;4962092;28;20466;-72
2024/03/10 03:11:50;;;;;;;12.03;5.00;;;9.10;99.90;;;;;;4961800;28;20571;-72
2024/03/10 03:14:15;;;;;;;8.10;5.70;;;9.10;99.90;;;;;;4963338;28;20269;-70
2024/03/10 03:16:44;;;;;;;8.80;5.50;;;9.20;99.90;;;;;;4973080;28;20474;-72
2024/03/10 03:19:13;;;;;;;9.67;5.60;;;9.20;99.90;;;;;;4955584;28;20227;-73
2024/03/10 03:21:42;;;;;;;9.77;6.37;;;9.20;99.90;;;;;;4960539;28;20541;-73
2024/03/10 03:24:09;;;;;;;5.80;5.20;;;9.10;99.90;;;;;;4972441;28;20549;-72
2024/03/10 03:26:38;;;;;;;8.60;5.90;;;9.20;99.90;;;;;;4960097;28;20524;-72
2024/03/10 03:29:08;;;;;;;7.77;4.87;;;9.10;99.90;;;;;;4954368;28;20544;-73
2024/03/10 03:31:34;;;;;;;7.60;5.07;;;9.20;99.90;;;;;;4961555;28;20474;-72
2024/03/10 03:34:00;;;;;;;8.07;5.87;;;9.20;99.90;;;;;;4940070;28;20501;-71
2024/03/10 03:36:26;;;;;;;9.97;6.00;;;9.20;99.90;;;;;;4958241;28;20219;-72
2024/03/10 03:38:51;;;;;;;11.20;6.60;;;9.20;99.90;;;;;;4959539;28;20738;-73
2024/03/10 03:41:17;;;;;;;7.60;4.80;;;9.20;99.90;;;;;;4964805;28;20230;-73
2024/03/10 03:43:43;;;;;;;6.20;4.60;;;9.20;99.90;;;;;;4975476;28;20222;-72
2024/03/10 03:46:09;;;;;;;5.93;4.37;;;9.20;99.90;;;;;;4957190;28;20458;-72
2024/03/10 03:48:36;;;;;;;7.97;5.93;;;9.20;99.90;;;;;;4966647;28;20497;-72
2024/03/10 03:51:02;;;;;;;8.47;5.33;;;9.20;99.90;;;;;;4958957;28;20593;-73
2024/03/10 03:53:28;;;;;;;9.30;5.40;;;9.20;99.90;;;;;;4962390;28;20466;-72
2024/03/10 03:55:54;;;;;;;9.07;6.00;;;9.20;99.90;;;;;;4960257;28;20572;-72
2024/03/10 03:58:21;;;;;;;8.10;6.07;;;9.20;99.90;;;;;;4963665;28;20228;-72
2024/03/10 04:00:47;;;;;;;8.00;5.07;;;9.20;99.90;;;;;;4961487;28;20219;-73
2024/03/10 04:03:13;;;;;;;8.40;5.80;;;9.20;99.90;;;;;;4965854;28;20542;-72
2024/03/10 04:05:40;;;;;;;7.17;5.10;;;9.20;99.90;;;;;;4961503;28;20476;-70
2024/03/10 04:08:06;;;;;;;8.43;5.13;;;9.20;99.90;;;;;;4959826;28;20549;-70
2024/03/10 04:10:35;;;;;;;10.43;6.50;;;9.20;99.90;;;;;;4963081;28;20482;-71
2024/03/10 04:13:02;;;;;;;12.60;6.37;;;9.20;99.90;;;;;;4960333;28;20983;-71
2024/03/10 04:15:28;;;;;;;8.57;5.40;;;9.20;99.90;;;;;;4958327;28;20561;-71
2024/03/10 04:17:54;;;;;;;8.13;5.67;;;9.20;99.90;;;;;;4960503;28;20497;-73
2024/03/10 04:20:19;;;;;;;7.67;5.70;;;9.20;99.90;;;;;;4962255;28;20494;-72
2024/03/10 04:22:48;;;;;;;8.73;5.57;;;9.20;99.90;;;;;;4965518;28;20230;-72
2024/03/10 04:25:14;;;;;;;6.80;5.30;;;9.20;99.90;;;;;;4960930;28;20304;-72
2024/03/10 04:27:40;;;;;;;8.17;5.50;;;9.20;99.90;;;;;;4962229;28;20476;-72
2024/03/10 04:30:07;;;;;;;11.50;5.37;;;9.20;99.90;;;;;;4956853;28;20476;-71
2024/03/10 04:32:32;;;;;;;9.30;6.07;;;9.20;99.90;;;;;;4961153;28;20505;-71
2024/03/10 04:34:58;;;;;;;11.07;5.60;;;9.10;99.90;;;;;;4956759;28;20513;-72
2024/03/10 04:37:27;;;;;;;11.60;6.23;;;9.10;99.90;;;;;;4962950;28;20219;-73
2024/03/10 04:39:53;;;;;;;13.10;6.00;;;9.10;99.90;;;;;;4958997;28;21014;-73
2024/03/10 04:42:19;;;;;;;9.20;5.87;;;9.10;99.90;;;;;;4965729;28;20513;-72
2024/03/10 04:44:45;;;;;;;8.73;5.33;;;9.10;99.90;;;;;;4963687;28;20493;-73
2024/03/10 04:47:12;;;;;;;6.60;4.87;;;9.10;99.90;;;;;;4956660;28;20226;-72
2024/03/10 04:49:39;;;;;;;9.57;5.30;;;9.10;99.90;;;;;;4960777;28;20474;-73
2024/03/10 04:52:08;;;;;;;9.60;5.60;;;9.10;99.90;;;;;;4972291;28;20482;-72
2024/03/10 04:54:34;;;;;;;12.00;6.30;;;9.10;99.90;;;;;;4960972;28;20466;-71
2024/03/10 04:57:00;;;;;;;10.10;6.27;;;9.10;99.90;;;;;;4961444;28;20468;-72
2024/03/10 04:59:26;;;;;;;8.07;5.00;;;9.10;99.90;;;;;;4955072;28;20557;-71
2024/03/10 05:01:55;;;;;;;10.67;6.70;;;9.10;99.90;;;;;;4957468;28;20771;-73
2024/03/10 05:04:21;;;;;;;9.33;5.83;;;9.10;99.90;;;;;;4957685;28;20235;-73
2024/03/10 05:06:46;;;;;;;7.57;5.50;;;9.10;99.90;;;;;;4957852;28;20471;-73
2024/03/10 05:09:12;;;;;;;8.70;6.60;;;9.10;99.90;;;;;;4953699;28;20325;-73
2024/03/10 05:11:39;;;;;;;8.93;5.93;;;9.20;99.90;;;;;;4958731;28;20699;-73
2024/03/10 05:14:05;;;;;;;9.97;6.30;;;9.10;99.90;;;;;;4955252;28;20227;-73
2024/03/10 05:16:31;;;;;;;8.27;5.87;;;9.10;99.90;;;;;;4961500;28;20475;-72
2024/03/10 05:18:56;;;;;;;8.80;5.73;;;9.10;99.90;;;;;;4957245;28;20214;-73
2024/03/10 05:21:25;;;;;;;8.10;5.33;;;9.10;99.90;;;;;;4966101;28;20665;-72
2024/03/10 05:23:51;;;;;;;7.87;5.67;;;9.10;99.90;;;;;;4955806;28;20226;-73
2024/03/10 05:26:17;;;;;;;10.10;6.47;;;9.10;99.90;;;;;;4961487;28;20537;-72
2024/03/10 05:28:43;;;;;;;9.47;5.93;;;9.10;99.90;;;;;;4962536;28;20557;-73
2024/03/10 05:31:29;;;;;;;8.27;5.80;;;9.10;99.90;;;;;;4942077;28;20246;-73
2024/03/10 05:33:59;;;;;;;10.50;6.03;;;9.10;99.90;;;;;;4964964;28;20218;-73
2024/03/10 05:36:26;;;;;;;10.93;6.17;;;9.20;99.90;;;;;;4960513;28;20493;-73
2024/03/10 05:38:52;;;;;;;10.27;6.07;;;9.20;99.90;;;;;;4957294;28;20466;-72
2024/03/10 05:41:18;;;;;;;7.07;5.40;;;9.20;99.90;;;;;;4961047;28;20461;-73
2024/03/10 05:43:44;;;;;;;9.90;5.20;;;9.20;99.90;;;;;;4960637;28;20236;-73
2024/03/10 05:46:10;;;;;;;9.10;6.23;;;9.20;99.90;;;;;;4956601;28;20449;-73
2024/03/10 05:48:35;;;;;;;8.70;5.50;;;9.20;99.90;;;;;;4959788;28;20313;-70
2024/03/10 05:51:01;;;;;;;10.73;5.70;;;9.20;99.90;;;;;;4956599;28;20222;-72
2024/03/10 05:53:27;;;;;;;10.13;6.43;;;9.10;99.90;;;;;;4959453;28;20221;-72
2024/03/10 05:55:54;;;;;;;10.37;6.23;;;9.10;99.90;;;;;;4968736;28;20736;-72
2024/03/10 05:58:21;;;;;;;9.10;5.80;;;9.00;99.90;;;;;;4957336;28;20518;-72
2024/03/10 06:00:48;;;;;;;12.13;7.03;;;9.00;99.90;;;;;;4971203;28;20540;-72
2024/03/10 06:03:14;;;;;;;11.90;6.70;;;9.00;99.90;;;;;;4943470;28;20450;-72
2024/03/10 06:05:40;;;;;;;13.27;6.73;;;9.00;99.90;;;;;;4957367;28;20464;-72
2024/03/10 06:08:08;;;;;;;11.43;5.97;;;9.00;99.90;;;;;;4941128;28;20700;-72
2024/03/10 06:10:33;;;;;;;11.47;6.73;;;9.10;99.90;;;;;;4961356;28;20752;-72
2024/03/10 06:12:59;;;;;;;11.40;6.40;;;9.10;99.90;;;;;;4955983;28;20518;-73
2024/03/10 06:15:25;;;;;;;14.70;6.50;;;9.10;99.90;;;;;;4962570;28;20230;-73
2024/03/10 06:18:03;;;;;;;10.27;6.23;;;9.00;99.90;;;;;;4959482;28;20214;-73
2024/03/10 06:25:59;;;;;;;14.30;6.80;;;8.90;99.90;;;;;;4953695;28;20537;-73
2024/03/10 06:28:25;;;;;;;10.70;7.60;;;8.90;99.90;;;;;;4959624;28;20803;-73
2024/03/10 06:30:51;;;;;;;10.60;6.93;;;8.90;99.90;;;;;;4955277;28;20520;-73
2024/03/10 06:33:16;;;;;;;11.80;7.43;;;8.90;99.90;;;;;;4961792;28;20289;-72
2024/03/10 06:35:42;;;;;;;14.10;7.43;;;8.90;99.90;;;;;;4971604;28;20624;-72
2024/03/10 06:38:08;;;;;;;13.83;7.80;;;8.90;99.90;;;;;;4951812;28;20234;-70
2024/03/10 06:40:33;;;;;;;11.83;6.77;;;8.90;99.90;;;;;;4956564;28;20219;-71
2024/03/10 06:43:00;;;;;;;12.87;6.60;;;8.90;99.90;;;;;;4956708;28;20222;-72
2024/03/10 06:45:26;;;;;;;12.50;7.10;;;8.90;99.90;;;;;;4960201;28;20214;-72
2024/03/10 06:47:51;;;;;;;12.57;8.03;;;8.90;99.90;;;;;;4956557;28;21010;-73
2024/03/10 06:50:17;;;;;;;12.73;7.47;;;8.90;99.90;;;;;;4964280;28;20231;-73
2024/03/10 06:52:45;;;;;;;14.07;7.67;;;8.80;99.90;;;;;;4962750;28;20329;-71
2024/03/10 06:55:12;;;;;;;10.83;7.50;;;8.80;99.90;;;;;;4953054;28;20226;-72
2024/03/10 06:57:38;;;;;;;10.97;6.97;;;8.80;99.90;;;;;;4964779;28;20466;-70
2024/03/10 07:00:12;;;;;;;12.60;7.70;;;8.80;99.90;;;;;;4960800;28;20476;-72
2024/03/10 07:02:39;;;;;;;10.60;7.13;;;8.80;99.90;;;;;;4961792;28;20237;-72
2024/03/10 07:05:06;;;;;;;13.00;8.23;;;8.80;99.90;;;;;;4959100;28;20465;-71
2024/03/10 07:07:32;;;;;;;11.10;7.37;;;8.80;99.90;;;;;;4962952;28;20474;-71
2024/03/10 07:09:57;;;;;;;10.27;6.70;;;8.80;99.90;;;;;;4943022;28;20484;-71
2024/03/10 07:12:23;;;;;;;13.60;7.37;;;8.80;99.90;;;;;;4962712;28;20253;-72
2024/03/10 07:14:49;;;;;;;14.23;7.93;;;8.80;99.90;;;;;;4955646;28;20301;-71
2024/03/10 07:17:15;;;;;;;13.67;7.53;;;8.80;99.90;;;;;;4945076;28;20596;-71
2024/03/10 07:19:42;;;;;;;10.70;6.53;;;8.80;99.90;;;;;;4962806;28;20470;-71
2024/03/10 07:22:08;;;;;;;12.80;7.70;;;8.80;99.90;;;;;;4959963;28;20622;-71
2024/03/10 07:24:34;;;;;;;11.00;6.87;;;8.80;99.90;;;;;;4961922;28;20561;-70
2024/03/10 07:27:00;;;;;;;12.83;7.80;;;8.80;99.90;;;;;;4963675;28;20472;-71
2024/03/10 07:29:25;;;;;;;11.30;7.70;;;8.80;99.90;;;;;;4962558;28;20482;-71
2024/03/10 07:31:51;;;;;;;12.83;7.83;;;8.80;99.90;;;;;;4956755;28;20219;-71
2024/03/10 07:34:17;;;;;;;12.00;7.87;;;8.80;99.90;;;;;;4958512;28;20222;-70
2024/03/10 07:36:42;;;;;;;15.80;7.70;;;8.80;99.90;;;;;;4962501;28;20223;-72
2024/03/10 07:39:10;;;;;;;13.63;8.60;;;8.80;99.90;;;;;;4956560;28;20613;-71
2024/03/10 07:41:36;;;;;;;11.23;8.07;;;8.80;99.90;;;;;;4967492;28;20230;-71
2024/03/10 07:44:02;;;;;;;14.03;7.73;;;8.80;99.90;;;;;;4949570;28;20830;-71
2024/03/10 07:46:28;;;;;;;12.60;8.53;;;8.80;99.90;;;;;;4967982;28;20226;-71
2024/03/10 07:48:54;;;;;;;12.70;7.67;;;8.80;99.90;;;;;;4965665;28;20474;-71
2024/03/10 07:51:20;;;;;;;12.33;7.53;;;8.80;99.90;;;;;;4968368;28;20217;-72
2024/03/10 07:53:46;;;;;;;12.03;7.70;;;8.80;99.90;;;;;;4966920;28;20543;-71
2024/03/10 07:56:12;;;;;;;10.90;6.90;;;8.80;99.90;;;;;;4968780;28;20225;-71
2024/03/10 07:58:37;;;;;;;16.03;8.50;;;8.80;99.90;;;;;;4967826;28;20226;-71
2024/03/10 08:01:03;;;;;;;14.10;7.73;;;8.70;99.90;;;;;;4967340;28;20222;-72
2024/03/10 08:03:29;;;;;;;12.00;7.30;;;8.80;99.90;;;;;;4966031;28;20227;-71
2024/03/10 08:05:55;;;;;;;12.70;8.57;;;8.80;99.90;;;;;;4963656;28;20451;-73
2024/03/10 08:08:21;;;;;;;13.13;7.43;;;8.80;99.90;;;;;;4966174;28;20645;-73
2024/03/10 08:10:47;;;;;;;11.53;7.90;;;8.80;99.90;;;;;;4967674;28;20211;-72
2024/03/10 08:13:12;;;;;;;11.20;7.97;;;8.80;99.90;;;;;;4969004;28;20214;-72
2024/03/10 08:15:38;;;;;;;13.20;8.43;;;8.90;99.90;;;;;;4970033;28;20621;-71
2024/03/10 08:18:04;;;;;;;14.70;8.60;;;8.90;99.90;;;;;;4967469;28;20221;-72
2024/03/10 08:20:30;;;;;;;14.47;8.50;;;8.90;99.90;;;;;;4966944;28;20500;-71
2024/03/10 08:22:56;;;;;;;15.60;8.80;;;8.90;99.90;;;;;;4965894;28;20454;-72
2024/03/10 08:25:22;;;;;;;16.17;9.50;;;9.00;99.90;;;;;;4954243;28;20233;-72
2024/03/10 08:27:51;;;;;;;14.40;9.20;;;9.00;99.90;;;;;;4966172;28;20586;-73
2024/03/10 08:30:17;;;;;;;17.30;9.77;;;9.00;99.90;;;;;;4951602;28;20499;-71
2024/03/10 08:32:43;;;;;;;15.53;8.50;;;9.00;99.90;;;;;;4969134;28;20506;-71
2024/03/10 08:35:09;;;;;;;16.27;8.40;;;9.00;99.90;;;;;;4966491;28;20226;-71
2024/03/10 08:37:38;;;;;;;12.93;8.50;;;9.00;99.90;;;;;;4951003;28;20235;-71
2024/03/10 08:40:09;;;;;;;13.17;9.83;;;9.10;99.90;;;;;;4949653;28;20450;-72
2024/03/10 08:42:41;;;;;;;16.03;9.10;;;9.10;99.90;;;;;;4951214;28;20468;-70
2024/03/10 08:45:10;;;;;;;16.20;9.40;;;9.10;99.90;;;;;;4967965;28;21015;-72
2024/03/10 08:47:45;;;;;;;16.07;9.40;;;9.10;99.90;;;;;;4969502;28;20979;-71
2024/03/10 08:50:12;;;;;;;14.93;9.07;;;9.20;99.90;;;;;;4969180;28;20469;-71
2024/03/10 08:52:38;;;;;;;17.30;8.67;;;9.20;99.90;;;;;;4969931;28;20489;-72
2024/03/10 08:55:08;;;;;;;14.20;9.00;;;9.30;99.90;;;;;;4963051;28;20477;-73
2024/03/10 08:57:35;;;;;;;13.90;9.10;;;9.40;99.90;;;;;;4964197;28;20490;-71
2024/03/10 09:00:02;;;;;;;14.20;8.60;;;9.40;99.90;;;;;;4960176;28;21019;-73
2024/03/10 09:02:28;;;;;;;17.87;9.93;;;9.40;99.90;;;;;;4961492;28;20462;-72
2024/03/10 09:04:54;;;;;;;13.77;9.60;;;9.40;99.90;;;;;;4957474;28;20504;-73
2024/03/10 09:07:22;;;;;;;17.80;9.50;;;9.40;99.90;;;;;;4958365;28;20527;-73
2024/03/10 09:09:49;;;;;;;17.27;10.90;;;9.40;99.90;;;;;;4957628;28;20262;-72
2024/03/10 09:12:15;;;;;;;18.33;11.43;;;9.40;99.90;;;;;;4946642;28;20516;-73
2024/03/10 09:14:40;;;;;;;14.63;9.27;;;9.40;99.90;;;;;;4949498;28;20886;-73
2024/03/10 09:17:06;;;;;;;21.10;10.10;;;9.40;99.90;;;;;;4963139;28;20497;-73
2024/03/10 09:19:32;;;;;;;16.40;9.80;;;9.40;99.90;;;;;;4963787;28;20232;-72
2024/03/10 09:21:58;;;;;;;14.87;8.07;;;9.40;99.90;;;;;;4957298;28;20318;-72
2024/03/10 09:24:26;;;;;;;16.33;9.30;;;9.50;99.90;;;;;;4962645;28;20226;-72
2024/03/10 09:26:54;;;;;;;15.73;9.00;;;9.50;99.90;;;;;;4960972;28;20982;-73
2024/03/10 09:29:26;;;;;;;14.13;8.93;;;9.50;99.90;;;;;;4962783;28;21069;-73
2024/03/10 09:31:55;;;;;;;12.10;7.67;;;9.50;99.90;;;;;;4956565;28;20447;-72
2024/03/10 09:34:24;;;;;;;12.30;8.60;;;9.50;99.90;;;;;;4966990;28;20473;-73
2024/03/10 09:36:50;;;;;;;13.50;9.57;;;9.50;99.90;;;;;;4965235;28;20492;-73
2024/03/10 09:39:17;;;;;;;14.20;8.93;;;9.50;99.90;;;;;;4967264;28;20466;-73
2024/03/10 09:41:43;;;;;;;12.77;7.70;;;9.50;99.90;;;;;;4961433;28;20469;-72
2024/03/10 09:44:17;;;;;;;13.87;8.13;;;9.50;99.90;;;;;;4967290;28;20457;-73
2024/03/10 09:46:44;;;;;;;14.57;8.47;;;9.60;99.90;;;;;;4967923;28;20485;-73
2024/03/10 09:49:14;;;;;;;11.53;8.40;;;9.60;99.90;;;;;;4964923;28;20817;-73
2024/03/10 09:51:44;;;;;;;15.33;9.17;;;9.60;99.90;;;;;;4947794;28;20461;-72
2024/03/10 09:54:12;;;;;;;14.67;8.87;;;9.60;99.90;;;;;;4962708;28;20462;-73
2024/03/10 09:56:41;;;;;;;15.33;9.10;;;9.60;99.90;;;;;;4968819;28;20588;-73
2024/03/10 09:59:16;;;;;;;10.83;8.17;;;9.70;99.90;;;;;;4957124;28;20523;-72
2024/03/10 10:01:43;;;;;;;15.23;8.90;;;9.70;99.90;;;;;;4969737;28;20975;-72
2024/03/10 10:04:11;;;;;;;13.43;8.30;;;9.70;99.90;;;;;;4976417;28;20569;-72
2024/03/10 10:06:41;;;;;;;12.97;8.77;;;9.70;99.90;;;;;;4963909;28;20830;-71
2024/03/10 10:09:10;;;;;;;14.67;8.73;;;9.70;99.90;;;;;;4964530;28;20485;-73
2024/03/10 10:11:37;;;;;;;12.83;7.80;;;9.80;99.90;;;;;;4967467;28;20450;-71
2024/03/10 10:14:10;;;;;;;14.50;8.57;;;9.90;99.90;;;;;;4965182;28;20517;-72
2024/03/10 10:16:37;;;;;;;16.03;8.70;;;9.90;99.90;;;;;;4964392;28;20491;-72
2024/03/10 10:19:06;;;;;;;13.50;8.47;;;9.90;99.90;;;;;;4963492;28;20462;-72
2024/03/10 10:21:35;;;;;;;12.37;7.67;;;10.00;99.90;;;;;;4961284;28;20458;-72
2024/03/10 10:24:01;;;;;;;15.30;9.17;;;10.00;99.90;;;;;;4965113;28;20910;-72
2024/03/10 10:26:27;;;;;;;13.10;9.13;;;10.00;99.90;;;;;;4963321;28;20488;-71
2024/03/10 10:29:07;;;;;;;15.43;8.80;;;10.00;99.90;;;;;;4963441;28;20226;-70
2024/03/10 10:31:34;;;;;;;15.87;9.30;;;10.00;99.90;;;;;;4969156;28;20214;-72
2024/03/10 10:34:01;;;;;;;15.20;8.33;;;10.10;99.90;;;;;;4960378;28;20468;-72
2024/03/10 10:36:27;;;;;;;16.17;9.20;;;10.10;99.90;;;;;;4965529;28;20538;-71
2024/03/10 10:38:53;;;;;;;18.70;9.57;;;10.10;99.90;;;;;;4958422;28;20893;-71
2024/03/10 10:41:20;;;;;;;14.47;9.33;;;10.10;99.90;;;;;;4963675;28;20222;-72
2024/03/10 10:43:46;;;;;;;14.73;7.50;;;10.10;99.90;;;;;;4978002;28;20237;-72
2024/03/10 10:46:12;;;;;;;14.83;9.20;;;10.10;99.90;;;;;;4957251;28;20461;-72
2024/03/10 10:48:41;;;;;;;16.90;9.63;;;10.20;99.90;;;;;;4960559;28;20310;-72
2024/03/10 10:51:08;;;;;;;16.83;9.83;;;10.20;99.90;;;;;;4959950;28;20533;-72
2024/03/10 10:53:35;;;;;;;14.13;9.30;;;10.20;99.90;;;;;;4964756;28;20631;-72
2024/03/10 10:56:02;;;;;;;15.00;9.27;;;10.30;99.90;;;;;;4958726;28;20454;-73
2024/03/10 10:58:33;;;;;;;14.00;9.40;;;10.30;99.90;;;;;;4962106;28;20460;-72
2024/03/10 11:01:05;;;;;;;14.60;9.60;;;10.30;99.90;;;;;;4958129;28;20489;-72
2024/03/10 11:03:36;;;;;;;14.83;8.50;;;10.30;99.90;;;;;;4961745;28;21022;-72
2024/03/10 11:06:01;;;;;;;16.00;9.67;;;10.30;99.90;;;;;;4958677;28;20553;-73
2024/03/10 11:08:40;;;;;;;17.13;8.87;;;10.40;99.90;;;;;;4961869;28;20545;-73
2024/03/10 11:11:06;;;;;;;14.60;9.40;;;10.30;99.90;;;;;;4962427;28;20214;-73
2024/03/10 11:13:40;;;;;;;14.80;8.67;;;10.40;99.90;;;;;;4972521;28;20469;-73
2024/03/10 11:16:09;;;;;;;14.33;8.53;;;10.40;99.90;;;;;;4959668;28;20245;-72
2024/03/10 11:18:38;;;;;;;14.73;9.30;;;10.40;99.90;;;;;;4958123;28;20469;-72
2024/03/10 11:21:12;;;;;;;18.03;11.00;;;10.50;99.90;;;;;;4960921;28;20529;-72
2024/03/10 11:23:46;;;;;;;15.93;10.73;;;10.50;99.90;;;;;;4965030;28;20496;-73
2024/03/10 11:26:25;;;;;;;24.17;13.20;;;10.50;99.90;;;;;;4959978;28;20532;-72
2024/03/10 11:28:59;;;;;;;22.23;13.17;;;10.60;99.90;;;;;;4954903;28;20497;-72
2024/03/10 11:31:35;;;;;;;17.57;10.10;;;10.50;99.90;;;;;;4943703;28;20473;-73
2024/03/10 11:34:04;;;;;;;13.10;9.57;;;10.60;99.90;;;;;;4941187;28;20479;-73
2024/03/10 11:36:43;;;;;;;17.00;10.50;;;10.60;99.90;;;;;;4962596;28;20504;-71
2024/03/10 11:39:08;;;;;;;14.37;9.73;;;10.60;99.90;;;;;;4961019;28;20529;-72
2024/03/10 11:41:36;;;;;;;18.97;9.87;;;10.60;99.90;;;;;;4962214;28;20560;-72
2024/03/10 11:44:02;;;;;;;15.07;10.17;;;10.60;99.90;;;;;;4958991;28;20218;-73
2024/03/10 11:46:31;;;;;;;18.60;9.77;;;10.70;99.90;;;;;;4961930;28;20505;-73
2024/03/10 11:48:58;;;;;;;14.23;9.43;;;10.70;99.90;;;;;;4957670;28;20473;-73
2024/03/10 11:51:30;;;;;;;13.93;8.50;;;10.70;99.90;;;;;;4970333;28;20453;-73
2024/03/10 11:53:56;;;;;;;16.93;10.40;;;10.80;99.90;;;;;;4959992;28;20525;-73
2024/03/10 11:56:23;;;;;;;14.77;10.13;;;10.90;99.90;;;;;;4959115;28;20465;-73
2024/03/10 11:58:50;;;;;;;19.13;10.43;;;10.90;99.90;;;;;;4961366;28;20465;-73
2024/03/10 12:01:16;;;;;;;19.13;11.67;;;10.90;99.90;;;;;;4960857;28;20797;-71
2024/03/10 12:03:45;;;;;;;14.37;9.53;;;10.90;99.90;;;;;;4961013;28;20469;-71
2024/03/10 12:06:12;;;;;;;15.00;9.47;;;10.90;99.90;;;;;;4953854;28;20461;-72
2024/03/10 12:08:37;;;;;;;15.80;10.40;;;10.90;99.90;;;;;;4956155;28;20458;-73
2024/03/10 12:11:04;;;;;;;16.67;9.47;;;10.90;99.90;;;;;;4959338;28;21030;-72
2024/03/10 12:13:30;;;;;;;17.33;10.07;;;10.90;99.90;;;;;;4959137;28;20254;-73
2024/03/10 12:16:02;;;;;;;13.50;9.60;;;11.00;99.90;;;;;;4953780;28;20894;-73
2024/03/10 12:18:31;;;;;;;16.63;9.20;;;11.00;99.90;;;;;;4961517;28;20461;-73
2024/03/10 12:21:00;;;;;;;13.23;8.87;;;11.00;99.90;;;;;;4956835;28;20464;-72
2024/03/10 12:23:31;;;;;;;16.67;10.37;;;11.10;99.90;;;;;;4970692;28;20474;-73
2024/03/10 12:25:57;;;;;;;14.53;8.67;;;11.10;99.90;;;;;;4958324;28;20462;-73
2024/03/10 12:28:25;;;;;;;19.30;9.80;;;11.10;99.90;;;;;;4961498;28;20463;-72
2024/03/10 12:30:57;;;;;;;11.90;8.37;;;11.10;99.90;;;;;;4958227;28;20226;-73
2024/03/10 12:33:23;;;;;;;14.57;8.87;;;11.10;99.90;;;;;;4961835;28;21031;-72
2024/03/10 12:35:48;;;;;;;13.13;9.27;;;11.20;99.90;;;;;;4961128;28;20458;-73
2024/03/10 12:38:14;;;;;;;16.07;8.93;;;11.20;99.90;;;;;;4952643;28;20214;-71
2024/03/10 12:40:41;;;;;;;15.73;10.10;;;11.20;99.90;;;;;;4961211;28;20248;-73
2024/03/10 12:43:07;;;;;;;19.00;12.30;;;11.20;99.90;;;;;;4957208;28;21057;-72
2024/03/10 12:45:33;;;;;;;15.43;10.10;;;11.30;99.90;;;;;;4958678;28;20462;-72
2024/03/10 12:47:59;;;;;;;14.10;9.67;;;11.30;99.90;;;;;;4958670;28;20277;-73
2024/03/10 12:50:25;;;;;;;13.77;8.90;;;11.30;99.90;;;;;;4962909;28;20477;-73
2024/03/10 12:52:51;;;;;;;13.53;8.57;;;11.30;99.90;;;;;;4958548;28;20293;-73
2024/03/10 12:55:18;;;;;;;12.80;8.90;;;11.30;99.90;;;;;;4956540;28;20227;-72
2024/03/10 12:57:44;;;;;;;10.73;8.33;;;11.30;99.90;;;;;;4961829;28;20913;-72
2024/03/10 13:02:47;;;;;;;11.73;8.10;;;11.40;99.90;;;;;;4977239;28;20481;-72
2024/03/10 13:05:14;;;;;;;12.90;8.53;;;11.50;99.90;;;;;;4956008;28;20481;-73
2024/03/10 13:07:40;;;;;;;12.90;8.73;;;11.50;99.90;;;;;;4973768;28;20532;-72
2024/03/10 13:10:07;;;;;;;13.73;8.37;;;11.60;99.90;;;;;;4956350;28;20545;-71